sensor_id;sensor_type;location;lat;lon;timestamp;temperature;humidity
59075;DHT22;44860;53.020;6.738;2023-07-29T00:01:35;18.70;99.90
59075;DHT22;44860;53.020;6.738;2023-07-29T00:04:01;18.70;99.90
59075;DHT22;44860;53.020;6.738;2023-07-29T00:06:27;18.70;99.90
59075;DHT22;44860;53.020;6.738;2023-07-29T00:08:53;18.70;99.90
59075;DHT22;44860;53.020;6.738;2023-07-29T00:11:19;18.70;99.90
59075;DHT22;44860;53.020;6.738;2023-07-29T00:13:44;18.70;99.90
59075;DHT22;44860;53.020;6.738;2023-07-29T00:16:10;18.70;99.90
59075;DHT22;44860;53.020;6.738;2023-07-29T00:18:36;18.70;99.90
59075;DHT22;44860;53.020;6.738;2023-07-29T00:21:01;18.70;99.90
59075;DHT22;44860;53.020;6.738;2023-07-29T00:23:28;18.70;99.90
59075;DHT22;44860;53.020;6.738;2023-07-29T00:25:54;18.60;99.90
59075;DHT22;44860;53.020;6.738;2023-07-29T00:28:20;18.70;99.90
59075;DHT22;44860;53.020;6.738;2023-07-29T00:30:45;18.60;99.90
59075;DHT22;44860;53.020;6.738;2023-07-29T00:33:11;18.70;99.90
59075;DHT22;44860;53.020;6.738;2023-07-29T00:35:37;18.60;99.90
59075;DHT22;44860;53.020;6.738;2023-07-29T00:38:02;18.60;99.90
59075;DHT22;44860;53.020;6.738;2023-07-29T00:40:29;18.60;99.90
59075;DHT22;44860;53.020;6.738;2023-07-29T00:42:55;18.60;99.90
59075;DHT22;44860;53.020;6.738;2023-07-29T00:45:21;18.60;99.90
59075;DHT22;44860;53.020;6.738;2023-07-29T00:47:47;18.50;99.90
59075;DHT22;44860;53.020;6.738;2023-07-29T00:50:14;18.60;99.90
59075;DHT22;44860;53.020;6.738;2023-07-29T00:52:41;18.50;99.90
59075;DHT22;44860;53.020;6.738;2023-07-29T00:55:07;18.50;99.90
59075;DHT22;44860;53.020;6.738;2023-07-29T00:57:33;18.50;99.90
59075;DHT22;44860;53.020;6.738;2023-07-29T01:00:01;18.50;99.90
59075;DHT22;44860;53.020;6.738;2023-07-29T01:02:27;18.40;99.90
59075;DHT22;44860;53.020;6.738;2023-07-29T01:04:54;18.40;99.90
59075;DHT22;44860;53.020;6.738;2023-07-29T01:07:52;18.40;99.90
59075;DHT22;44860;53.020;6.738;2023-07-29T01:10:49;18.40;99.90
59075;DHT22;44860;53.020;6.738;2023-07-29T01:13:41;18.40;99.90
59075;DHT22;44860;53.020;6.738;2023-07-29T01:16:29;18.40;99.90
59075;DHT22;44860;53.020;6.738;2023-07-29T01:18:56;18.40;99.90
59075;DHT22;44860;53.020;6.738;2023-07-29T01:21:25;18.30;99.90
59075;DHT22;44860;53.020;6.738;2023-07-29T01:23:52;18.30;99.90
59075;DHT22;44860;53.020;6.738;2023-07-29T01:26:18;18.30;99.90
59075;DHT22;44860;53.020;6.738;2023-07-29T01:28:44;18.30;99.90
59075;DHT22;44860;53.020;6.738;2023-07-29T01:31:33;18.30;99.90
59075;DHT22;44860;53.020;6.738;2023-07-29T01:36:48;18.20;99.90
59075;DHT22;44860;53.020;6.738;2023-07-29T01:39:16;18.20;99.90
59075;DHT22;44860;53.020;6.738;2023-07-29T01:41:43;18.20;99.90
59075;DHT22;44860;53.020;6.738;2023-07-29T01:44:10;18.20;99.90
59075;DHT22;44860;53.020;6.738;2023-07-29T01:46:37;18.20;99.90
59075;DHT22;44860;53.020;6.738;2023-07-29T01:49:03;18.20;99.90
59075;DHT22;44860;53.020;6.738;2023-07-29T01:51:28;18.20;99.90
59075;DHT22;44860;53.020;6.738;2023-07-29T01:53:54;18.10;99.90
59075;DHT22;44860;53.020;6.738;2023-07-29T01:56:21;18.10;99.90
59075;DHT22;44860;53.020;6.738;2023-07-29T01:58:47;18.10;99.90
59075;DHT22;44860;53.020;6.738;2023-07-29T02:01:12;18.10;99.90
59075;DHT22;44860;53.020;6.738;2023-07-29T02:03:38;18.10;99.90
59075;DHT22;44860;53.020;6.738;2023-07-29T02:06:04;18.00;99.90
59075;DHT22;44860;53.020;6.738;2023-07-29T02:08:30;18.10;99.90
59075;DHT22;44860;53.020;6.738;2023-07-29T02:10:56;18.00;99.90
59075;DHT22;44860;53.020;6.738;2023-07-29T02:13:22;18.00;99.90
59075;DHT22;44860;53.020;6.738;2023-07-29T02:15:47;18.00;99.90
59075;DHT22;44860;53.020;6.738;2023-07-29T02:18:13;18.00;99.90
59075;DHT22;44860;53.020;6.738;2023-07-29T02:20:39;18.00;99.90
59075;DHT22;44860;53.020;6.738;2023-07-29T02:23:04;17.90;99.90
59075;DHT22;44860;53.020;6.738;2023-07-29T02:25:30;17.90;99.90
59075;DHT22;44860;53.020;6.738;2023-07-29T02:27:56;17.90;99.90
59075;DHT22;44860;53.020;6.738;2023-07-29T02:30:21;17.90;99.90
59075;DHT22;44860;53.020;6.738;2023-07-29T02:32:47;17.90;99.90
59075;DHT22;44860;53.020;6.738;2023-07-29T02:35:13;17.90;99.90
59075;DHT22;44860;53.020;6.738;2023-07-29T02:37:38;17.90;99.90
59075;DHT22;44860;53.020;6.738;2023-07-29T02:40:04;17.80;99.90
59075;DHT22;44860;53.020;6.738;2023-07-29T02:42:31;17.90;99.90
59075;DHT22;44860;53.020;6.738;2023-07-29T02:44:57;17.90;99.90
59075;DHT22;44860;53.020;6.738;2023-07-29T02:47:23;17.90;99.90
59075;DHT22;44860;53.020;6.738;2023-07-29T02:49:48;17.80;99.90
59075;DHT22;44860;53.020;6.738;2023-07-29T02:52:14;17.80;99.90
59075;DHT22;44860;53.020;6.738;2023-07-29T02:54:39;17.80;99.90
59075;DHT22;44860;53.020;6.738;2023-07-29T02:57:05;17.80;99.90
59075;DHT22;44860;53.020;6.738;2023-07-29T02:59:31;17.80;99.90
59075;DHT22;44860;53.020;6.738;2023-07-29T03:01:56;17.70;99.90
59075;DHT22;44860;53.020;6.738;2023-07-29T03:04:22;17.80;99.90
59075;DHT22;44860;53.020;6.738;2023-07-29T03:06:48;17.80;99.90
59075;DHT22;44860;53.020;6.738;2023-07-29T03:09:14;17.70;99.90
59075;DHT22;44860;53.020;6.738;2023-07-29T03:11:40;17.70;99.90
59075;DHT22;44860;53.020;6.738;2023-07-29T03:14:05;17.70;99.90
59075;DHT22;44860;53.020;6.738;2023-07-29T03:16:31;17.70;99.90
59075;DHT22;44860;53.020;6.738;2023-07-29T03:18:57;17.70;99.90
59075;DHT22;44860;53.020;6.738;2023-07-29T03:21:23;17.70;99.90
59075;DHT22;44860;53.020;6.738;2023-07-29T03:23:48;17.60;99.90
59075;DHT22;44860;53.020;6.738;2023-07-29T03:26:14;17.70;99.90
59075;DHT22;44860;53.020;6.738;2023-07-29T03:28:41;17.60;99.90
59075;DHT22;44860;53.020;6.738;2023-07-29T03:31:07;17.60;99.90
59075;DHT22;44860;53.020;6.738;2023-07-29T03:33:33;17.60;99.90
59075;DHT22;44860;53.020;6.738;2023-07-29T03:35:59;17.60;99.90
59075;DHT22;44860;53.020;6.738;2023-07-29T03:38:25;17.60;99.90
59075;DHT22;44860;53.020;6.738;2023-07-29T03:40:51;17.60;99.90
59075;DHT22;44860;53.020;6.738;2023-07-29T03:43:17;17.60;99.90
59075;DHT22;44860;53.020;6.738;2023-07-29T03:45:42;17.60;99.90
59075;DHT22;44860;53.020;6.738;2023-07-29T03:48:08;17.50;99.90
59075;DHT22;44860;53.020;6.738;2023-07-29T03:50:35;17.50;99.90
59075;DHT22;44860;53.020;6.738;2023-07-29T03:53:01;17.50;99.90
59075;DHT22;44860;53.020;6.738;2023-07-29T03:55:27;17.50;99.90
59075;DHT22;44860;53.020;6.738;2023-07-29T03:57:58;17.50;99.90
59075;DHT22;44860;53.020;6.738;2023-07-29T04:00:25;17.40;99.90
59075;DHT22;44860;53.020;6.738;2023-07-29T04:02:51;17.40;99.90
59075;DHT22;44860;53.020;6.738;2023-07-29T04:05:17;17.40;99.90
59075;DHT22;44860;53.020;6.738;2023-07-29T04:07:43;17.40;99.90
59075;DHT22;44860;53.020;6.738;2023-07-29T04:10:08;17.40;99.90
59075;DHT22;44860;53.020;6.738;2023-07-29T04:12:34;17.40;99.90
59075;DHT22;44860;53.020;6.738;2023-07-29T04:15:00;17.40;99.90
59075;DHT22;44860;53.020;6.738;2023-07-29T04:17:26;17.40;99.90
59075;DHT22;44860;53.020;6.738;2023-07-29T04:19:51;17.40;99.90
59075;DHT22;44860;53.020;6.738;2023-07-29T04:22:17;17.40;99.90
59075;DHT22;44860;53.020;6.738;2023-07-29T04:24:43;17.40;99.90
59075;DHT22;44860;53.020;6.738;2023-07-29T04:27:08;17.30;99.90
59075;DHT22;44860;53.020;6.738;2023-07-29T04:29:35;17.30;99.90
59075;DHT22;44860;53.020;6.738;2023-07-29T04:32:02;17.40;99.90
59075;DHT22;44860;53.020;6.738;2023-07-29T04:34:28;17.30;99.90
59075;DHT22;44860;53.020;6.738;2023-07-29T04:36:54;17.30;99.90
59075;DHT22;44860;53.020;6.738;2023-07-29T04:39:19;17.30;99.90
59075;DHT22;44860;53.020;6.738;2023-07-29T04:41:45;17.30;99.90
59075;DHT22;44860;53.020;6.738;2023-07-29T04:44:11;17.30;99.90
59075;DHT22;44860;53.020;6.738;2023-07-29T04:46:37;17.30;99.90
59075;DHT22;44860;53.020;6.738;2023-07-29T04:49:04;17.30;99.90
59075;DHT22;44860;53.020;6.738;2023-07-29T04:51:30;17.30;99.90
59075;DHT22;44860;53.020;6.738;2023-07-29T04:53:57;17.20;99.90
59075;DHT22;44860;53.020;6.738;2023-07-29T04:56:23;17.30;99.90
59075;DHT22;44860;53.020;6.738;2023-07-29T04:58:49;17.30;99.90
59075;DHT22;44860;53.020;6.738;2023-07-29T05:01:14;17.30;99.90
59075;DHT22;44860;53.020;6.738;2023-07-29T05:03:40;17.30;99.90
59075;DHT22;44860;53.020;6.738;2023-07-29T05:06:06;17.30;99.90
59075;DHT22;44860;53.020;6.738;2023-07-29T05:08:31;17.30;99.90
59075;DHT22;44860;53.020;6.738;2023-07-29T05:10:57;17.30;99.90
59075;DHT22;44860;53.020;6.738;2023-07-29T05:13:23;17.30;99.90
59075;DHT22;44860;53.020;6.738;2023-07-29T05:15:49;17.30;99.90
59075;DHT22;44860;53.020;6.738;2023-07-29T05:18:16;17.30;99.90
59075;DHT22;44860;53.020;6.738;2023-07-29T05:20:42;17.30;99.90
59075;DHT22;44860;53.020;6.738;2023-07-29T05:23:08;17.30;99.90
59075;DHT22;44860;53.020;6.738;2023-07-29T05:25:34;17.30;99.90
59075;DHT22;44860;53.020;6.738;2023-07-29T05:28:03;17.30;99.90
59075;DHT22;44860;53.020;6.738;2023-07-29T05:30:29;17.30;99.90
59075;DHT22;44860;53.020;6.738;2023-07-29T05:33:00;17.30;99.90
59075;DHT22;44860;53.020;6.738;2023-07-29T05:35:26;17.30;99.90
59075;DHT22;44860;53.020;6.738;2023-07-29T05:37:51;17.30;99.90
59075;DHT22;44860;53.020;6.738;2023-07-29T05:40:17;17.40;99.90
59075;DHT22;44860;53.020;6.738;2023-07-29T05:42:43;17.40;99.90
59075;DHT22;44860;53.020;6.738;2023-07-29T05:45:10;17.40;99.90
59075;DHT22;44860;53.020;6.738;2023-07-29T05:47:36;17.40;99.90
59075;DHT22;44860;53.020;6.738;2023-07-29T05:50:02;17.40;99.90
59075;DHT22;44860;53.020;6.738;2023-07-29T05:52:33;17.40;99.90
59075;DHT22;44860;53.020;6.738;2023-07-29T05:54:59;17.40;99.90
59075;DHT22;44860;53.020;6.738;2023-07-29T05:57:25;17.40;99.90
59075;DHT22;44860;53.020;6.738;2023-07-29T05:59:51;17.40;99.90
59075;DHT22;44860;53.020;6.738;2023-07-29T06:02:16;17.40;99.90
59075;DHT22;44860;53.020;6.738;2023-07-29T06:04:42;17.40;99.90
59075;DHT22;44860;53.020;6.738;2023-07-29T06:07:08;17.40;99.90
59075;DHT22;44860;53.020;6.738;2023-07-29T06:09:34;17.40;99.90
59075;DHT22;44860;53.020;6.738;2023-07-29T06:11:59;17.40;99.90
59075;DHT22;44860;53.020;6.738;2023-07-29T06:14:25;17.40;99.90
59075;DHT22;44860;53.020;6.738;2023-07-29T06:16:51;17.40;99.90
59075;DHT22;44860;53.020;6.738;2023-07-29T06:19:18;17.40;99.90
59075;DHT22;44860;53.020;6.738;2023-07-29T06:21:43;17.40;99.90
59075;DHT22;44860;53.020;6.738;2023-07-29T06:24:09;17.40;99.90
59075;DHT22;44860;53.020;6.738;2023-07-29T06:26:35;17.40;99.90
59075;DHT22;44860;53.020;6.738;2023-07-29T06:29:00;17.50;99.90
59075;DHT22;44860;53.020;6.738;2023-07-29T06:31:26;17.40;99.90
59075;DHT22;44860;53.020;6.738;2023-07-29T06:33:52;17.40;99.90
59075;DHT22;44860;53.020;6.738;2023-07-29T06:36:17;17.50;99.90
59075;DHT22;44860;53.020;6.738;2023-07-29T06:38:43;17.50;99.90
59075;DHT22;44860;53.020;6.738;2023-07-29T06:41:09;17.50;99.90
59075;DHT22;44860;53.020;6.738;2023-07-29T06:43:34;17.60;99.90
59075;DHT22;44860;53.020;6.738;2023-07-29T06:46:00;17.70;99.90
59075;DHT22;44860;53.020;6.738;2023-07-29T06:48:25;17.70;99.90
59075;DHT22;44860;53.020;6.738;2023-07-29T06:50:51;17.80;99.90
59075;DHT22;44860;53.020;6.738;2023-07-29T06:53:17;17.80;99.90
59075;DHT22;44860;53.020;6.738;2023-07-29T06:55:44;17.90;99.90
59075;DHT22;44860;53.020;6.738;2023-07-29T06:58:10;17.90;99.90
59075;DHT22;44860;53.020;6.738;2023-07-29T07:00:35;18.00;99.90
59075;DHT22;44860;53.020;6.738;2023-07-29T07:03:01;18.00;99.90
59075;DHT22;44860;53.020;6.738;2023-07-29T07:05:27;18.00;99.90
59075;DHT22;44860;53.020;6.738;2023-07-29T07:07:53;18.10;99.90
59075;DHT22;44860;53.020;6.738;2023-07-29T07:10:18;18.10;99.90
59075;DHT22;44860;53.020;6.738;2023-07-29T07:12:44;18.20;99.90
59075;DHT22;44860;53.020;6.738;2023-07-29T07:15:10;18.20;99.90
59075;DHT22;44860;53.020;6.738;2023-07-29T07:17:36;18.30;99.90
59075;DHT22;44860;53.020;6.738;2023-07-29T07:20:02;18.30;99.90
59075;DHT22;44860;53.020;6.738;2023-07-29T07:22:27;18.40;99.90
59075;DHT22;44860;53.020;6.738;2023-07-29T07:24:53;18.40;99.90
59075;DHT22;44860;53.020;6.738;2023-07-29T07:27:19;18.40;99.90
59075;DHT22;44860;53.020;6.738;2023-07-29T07:29:44;18.50;99.90
59075;DHT22;44860;53.020;6.738;2023-07-29T07:32:10;18.50;99.90
59075;DHT22;44860;53.020;6.738;2023-07-29T07:34:36;18.60;99.90
59075;DHT22;44860;53.020;6.738;2023-07-29T07:37:01;18.60;99.90
59075;DHT22;44860;53.020;6.738;2023-07-29T07:39:29;18.60;99.90
59075;DHT22;44860;53.020;6.738;2023-07-29T07:41:54;18.70;99.90
59075;DHT22;44860;53.020;6.738;2023-07-29T07:44:20;18.70;99.90
59075;DHT22;44860;53.020;6.738;2023-07-29T07:46:46;18.80;99.90
59075;DHT22;44860;53.020;6.738;2023-07-29T07:49:12;18.80;99.90
59075;DHT22;44860;53.020;6.738;2023-07-29T07:51:38;18.80;99.90
59075;DHT22;44860;53.020;6.738;2023-07-29T07:54:04;18.80;99.90
59075;DHT22;44860;53.020;6.738;2023-07-29T07:56:30;18.90;99.90
59075;DHT22;44860;53.020;6.738;2023-07-29T07:58:56;18.90;99.90
59075;DHT22;44860;53.020;6.738;2023-07-29T08:01:21;19.00;99.90
59075;DHT22;44860;53.020;6.738;2023-07-29T08:03:47;19.10;99.90
59075;DHT22;44860;53.020;6.738;2023-07-29T08:06:13;19.10;99.90
59075;DHT22;44860;53.020;6.738;2023-07-29T08:08:39;19.20;99.90
59075;DHT22;44860;53.020;6.738;2023-07-29T08:11:05;19.20;99.90
59075;DHT22;44860;53.020;6.738;2023-07-29T08:13:30;19.20;99.90
59075;DHT22;44860;53.020;6.738;2023-07-29T08:15:56;19.30;99.90
59075;DHT22;44860;53.020;6.738;2023-07-29T08:18:22;19.30;99.90
59075;DHT22;44860;53.020;6.738;2023-07-29T08:20:55;19.40;99.90
59075;DHT22;44860;53.020;6.738;2023-07-29T08:23:24;19.40;99.90
59075;DHT22;44860;53.020;6.738;2023-07-29T08:25:57;19.50;99.90
59075;DHT22;44860;53.020;6.738;2023-07-29T08:28:28;19.60;99.90
59075;DHT22;44860;53.020;6.738;2023-07-29T08:30:54;19.70;99.90
59075;DHT22;44860;53.020;6.738;2023-07-29T08:33:20;19.70;99.90
59075;DHT22;44860;53.020;6.738;2023-07-29T08:35:45;19.70;99.90
59075;DHT22;44860;53.020;6.738;2023-07-29T08:38:11;19.80;99.90
59075;DHT22;44860;53.020;6.738;2023-07-29T08:40:40;19.80;99.90
59075;DHT22;44860;53.020;6.738;2023-07-29T08:43:07;19.90;99.90
59075;DHT22;44860;53.020;6.738;2023-07-29T08:45:35;20.00;99.90
59075;DHT22;44860;53.020;6.738;2023-07-29T08:48:07;20.00;99.90
59075;DHT22;44860;53.020;6.738;2023-07-29T08:50:36;20.00;99.90
59075;DHT22;44860;53.020;6.738;2023-07-29T08:53:04;20.10;99.90
59075;DHT22;44860;53.020;6.738;2023-07-29T08:55:31;20.10;99.90
59075;DHT22;44860;53.020;6.738;2023-07-29T08:58:00;20.20;99.90
59075;DHT22;44860;53.020;6.738;2023-07-29T09:00:27;20.30;99.90
59075;DHT22;44860;53.020;6.738;2023-07-29T09:02:53;20.30;99.90
59075;DHT22;44860;53.020;6.738;2023-07-29T09:05:21;20.40;99.90
59075;DHT22;44860;53.020;6.738;2023-07-29T09:07:47;20.40;99.90
59075;DHT22;44860;53.020;6.738;2023-07-29T09:10:13;20.50;99.90
59075;DHT22;44860;53.020;6.738;2023-07-29T09:12:40;20.50;99.90
59075;DHT22;44860;53.020;6.738;2023-07-29T09:15:06;20.50;99.90
59075;DHT22;44860;53.020;6.738;2023-07-29T09:17:33;20.50;99.90
59075;DHT22;44860;53.020;6.738;2023-07-29T09:19:59;20.50;99.90
59075;DHT22;44860;53.020;6.738;2023-07-29T09:22:27;20.50;99.90
59075;DHT22;44860;53.020;6.738;2023-07-29T09:24:53;20.60;99.90
59075;DHT22;44860;53.020;6.738;2023-07-29T09:27:26;20.60;99.90
59075;DHT22;44860;53.020;6.738;2023-07-29T09:29:53;20.70;99.90
59075;DHT22;44860;53.020;6.738;2023-07-29T09:32:23;20.70;99.90
59075;DHT22;44860;53.020;6.738;2023-07-29T09:34:50;20.70;99.90
59075;DHT22;44860;53.020;6.738;2023-07-29T09:37:25;20.80;99.90
59075;DHT22;44860;53.020;6.738;2023-07-29T09:39:51;20.90;99.90
59075;DHT22;44860;53.020;6.738;2023-07-29T09:42:21;20.90;99.90
59075;DHT22;44860;53.020;6.738;2023-07-29T09:44:49;21.00;99.90
59075;DHT22;44860;53.020;6.738;2023-07-29T09:47:20;21.10;99.90
59075;DHT22;44860;53.020;6.738;2023-07-29T09:49:47;21.20;99.90
59075;DHT22;44860;53.020;6.738;2023-07-29T09:52:23;21.40;99.90
59075;DHT22;44860;53.020;6.738;2023-07-29T09:54:49;21.40;99.90
59075;DHT22;44860;53.020;6.738;2023-07-29T09:57:16;21.50;99.90
59075;DHT22;44860;53.020;6.738;2023-07-29T09:59:43;21.60;99.90
59075;DHT22;44860;53.020;6.738;2023-07-29T10:02:16;21.70;99.90
59075;DHT22;44860;53.020;6.738;2023-07-29T10:04:42;21.80;99.90
59075;DHT22;44860;53.020;6.738;2023-07-29T10:07:11;21.80;99.90
59075;DHT22;44860;53.020;6.738;2023-07-29T10:09:41;21.90;99.90
59075;DHT22;44860;53.020;6.738;2023-07-29T10:12:07;21.90;99.90
59075;DHT22;44860;53.020;6.738;2023-07-29T10:14:33;21.90;99.90
59075;DHT22;44860;53.020;6.738;2023-07-29T10:17:00;22.00;99.90
59075;DHT22;44860;53.020;6.738;2023-07-29T10:19:26;22.00;99.90
59075;DHT22;44860;53.020;6.738;2023-07-29T10:21:55;22.10;99.90
59075;DHT22;44860;53.020;6.738;2023-07-29T10:24:24;22.20;99.90
59075;DHT22;44860;53.020;6.738;2023-07-29T10:26:58;22.20;99.90
59075;DHT22;44860;53.020;6.738;2023-07-29T10:29:24;22.20;99.90
59075;DHT22;44860;53.020;6.738;2023-07-29T10:31:54;22.30;99.90
59075;DHT22;44860;53.020;6.738;2023-07-29T10:34:23;22.30;99.90
59075;DHT22;44860;53.020;6.738;2023-07-29T10:36:50;22.40;99.90
59075;DHT22;44860;53.020;6.738;2023-07-29T10:39:16;22.40;99.90
59075;DHT22;44860;53.020;6.738;2023-07-29T10:41:59;22.50;99.90
59075;DHT22;44860;53.020;6.738;2023-07-29T10:44:49;22.60;99.90
59075;DHT22;44860;53.020;6.738;2023-07-29T10:47:25;22.60;99.90
59075;DHT22;44860;53.020;6.738;2023-07-29T10:49:57;22.60;99.90
59075;DHT22;44860;53.020;6.738;2023-07-29T10:55:01;22.50;99.90
59075;DHT22;44860;53.020;6.738;2023-07-29T10:59:58;22.40;99.90
59075;DHT22;44860;53.020;6.738;2023-07-29T11:02:32;22.30;99.90
59075;DHT22;44860;53.020;6.738;2023-07-29T11:04:58;22.20;99.90
59075;DHT22;44860;53.020;6.738;2023-07-29T11:07:28;22.10;99.90
59075;DHT22;44860;53.020;6.738;2023-07-29T11:10:01;22.10;99.90
59075;DHT22;44860;53.020;6.738;2023-07-29T11:17:36;21.90;99.90
59075;DHT22;44860;53.020;6.738;2023-07-29T11:20:03;21.80;99.90
59075;DHT22;44860;53.020;6.738;2023-07-29T11:22:29;21.70;99.90
59075;DHT22;44860;53.020;6.738;2023-07-29T11:24:55;21.60;99.90
59075;DHT22;44860;53.020;6.738;2023-07-29T11:27:21;21.50;99.90
59075;DHT22;44860;53.020;6.738;2023-07-29T11:29:47;21.40;99.90
59075;DHT22;44860;53.020;6.738;2023-07-29T11:32:13;21.40;99.90
59075;DHT22;44860;53.020;6.738;2023-07-29T11:34:41;21.30;99.90
59075;DHT22;44860;53.020;6.738;2023-07-29T11:37:10;21.30;99.90
59075;DHT22;44860;53.020;6.738;2023-07-29T11:39:42;21.20;99.90
59075;DHT22;44860;53.020;6.738;2023-07-29T11:42:11;21.20;99.90
59075;DHT22;44860;53.020;6.738;2023-07-29T11:44:38;21.30;99.90
59075;DHT22;44860;53.020;6.738;2023-07-29T11:47:10;21.40;99.90
59075;DHT22;44860;53.020;6.738;2023-07-29T11:49:38;21.40;99.90
59075;DHT22;44860;53.020;6.738;2023-07-29T11:52:06;21.50;99.90
59075;DHT22;44860;53.020;6.738;2023-07-29T11:54:33;21.60;99.90
59075;DHT22;44860;53.020;6.738;2023-07-29T11:57:01;21.60;99.90
59075;DHT22;44860;53.020;6.738;2023-07-29T11:59:27;21.60;99.90
59075;DHT22;44860;53.020;6.738;2023-07-29T12:01:53;21.60;99.90
59075;DHT22;44860;53.020;6.738;2023-07-29T12:04:19;21.70;99.90
59075;DHT22;44860;53.020;6.738;2023-07-29T12:06:46;21.70;99.90
59075;DHT22;44860;53.020;6.738;2023-07-29T12:09:11;21.80;99.90
59075;DHT22;44860;53.020;6.738;2023-07-29T12:11:39;21.80;99.90
59075;DHT22;44860;53.020;6.738;2023-07-29T12:14:07;21.80;99.90
59075;DHT22;44860;53.020;6.738;2023-07-29T12:16:43;21.80;99.90
59075;DHT22;44860;53.020;6.738;2023-07-29T12:19:12;21.70;99.90
59075;DHT22;44860;53.020;6.738;2023-07-29T12:21:38;21.70;99.90
59075;DHT22;44860;53.020;6.738;2023-07-29T12:24:04;21.60;99.90
59075;DHT22;44860;53.020;6.738;2023-07-29T12:26:30;21.60;99.90
59075;DHT22;44860;53.020;6.738;2023-07-29T12:28:56;21.60;99.90
59075;DHT22;44860;53.020;6.738;2023-07-29T12:31:28;21.50;99.90
59075;DHT22;44860;53.020;6.738;2023-07-29T12:33:56;21.60;99.90
59075;DHT22;44860;53.020;6.738;2023-07-29T12:36:22;21.60;99.90
59075;DHT22;44860;53.020;6.738;2023-07-29T12:38:47;21.60;99.90
59075;DHT22;44860;53.020;6.738;2023-07-29T12:41:13;21.70;99.90
59075;DHT22;44860;53.020;6.738;2023-07-29T12:43:39;21.70;99.90
59075;DHT22;44860;53.020;6.738;2023-07-29T12:46:04;21.70;99.90
59075;DHT22;44860;53.020;6.738;2023-07-29T12:48:30;21.80;99.90
59075;DHT22;44860;53.020;6.738;2023-07-29T12:50:56;21.90;99.90
59075;DHT22;44860;53.020;6.738;2023-07-29T12:53:21;21.90;99.90
59075;DHT22;44860;53.020;6.738;2023-07-29T12:55:47;21.90;99.90
59075;DHT22;44860;53.020;6.738;2023-07-29T12:58:13;21.90;99.90
59075;DHT22;44860;53.020;6.738;2023-07-29T13:00:38;22.00;99.90
59075;DHT22;44860;53.020;6.738;2023-07-29T13:03:04;22.00;99.90
59075;DHT22;44860;53.020;6.738;2023-07-29T13:05:31;22.10;99.90
59075;DHT22;44860;53.020;6.738;2023-07-29T13:07:56;22.10;99.90
59075;DHT22;44860;53.020;6.738;2023-07-29T13:10:22;22.10;99.90
59075;DHT22;44860;53.020;6.738;2023-07-29T13:12:48;22.10;99.90
59075;DHT22;44860;53.020;6.738;2023-07-29T13:15:14;22.00;99.90
59075;DHT22;44860;53.020;6.738;2023-07-29T13:17:40;22.10;99.90
59075;DHT22;44860;53.020;6.738;2023-07-29T13:20:07;22.10;99.90
59075;DHT22;44860;53.020;6.738;2023-07-29T13:22:33;22.20;99.90
59075;DHT22;44860;53.020;6.738;2023-07-29T13:24:58;22.40;99.90
59075;DHT22;44860;53.020;6.738;2023-07-29T13:27:24;22.60;99.90
59075;DHT22;44860;53.020;6.738;2023-07-29T13:29:50;22.70;99.90
59075;DHT22;44860;53.020;6.738;2023-07-29T13:32:16;22.80;99.90
59075;DHT22;44860;53.020;6.738;2023-07-29T13:34:42;23.00;99.90
59075;DHT22;44860;53.020;6.738;2023-07-29T13:37:08;23.10;99.90
59075;DHT22;44860;53.020;6.738;2023-07-29T13:39:33;23.20;99.90
59075;DHT22;44860;53.020;6.738;2023-07-29T13:41:59;23.20;99.90
59075;DHT22;44860;53.020;6.738;2023-07-29T13:44:25;23.20;99.90
59075;DHT22;44860;53.020;6.738;2023-07-29T13:46:50;23.20;99.90
59075;DHT22;44860;53.020;6.738;2023-07-29T13:49:17;23.20;99.90
59075;DHT22;44860;53.020;6.738;2023-07-29T13:51:42;23.20;99.90
59075;DHT22;44860;53.020;6.738;2023-07-29T13:54:08;23.20;99.90
59075;DHT22;44860;53.020;6.738;2023-07-29T13:56:34;23.30;99.90
59075;DHT22;44860;53.020;6.738;2023-07-29T13:58:59;23.40;99.90
59075;DHT22;44860;53.020;6.738;2023-07-29T14:01:25;23.50;99.90
59075;DHT22;44860;53.020;6.738;2023-07-29T14:03:51;23.60;99.40
59075;DHT22;44860;53.020;6.738;2023-07-29T14:06:16;23.60;97.70
59075;DHT22;44860;53.020;6.738;2023-07-29T14:08:42;23.70;97.00
59075;DHT22;44860;53.020;6.738;2023-07-29T14:11:08;23.60;95.40
59075;DHT22;44860;53.020;6.738;2023-07-29T14:13:34;23.60;95.40
59075;DHT22;44860;53.020;6.738;2023-07-29T14:16:02;23.70;95.60
59075;DHT22;44860;53.020;6.738;2023-07-29T14:18:28;23.70;95.30
59075;DHT22;44860;53.020;6.738;2023-07-29T14:20:54;23.80;95.50
59075;DHT22;44860;53.020;6.738;2023-07-29T14:23:20;23.90;96.50
59075;DHT22;44860;53.020;6.738;2023-07-29T14:25:45;23.90;95.30
59075;DHT22;44860;53.020;6.738;2023-07-29T14:28:13;23.90;93.50
59075;DHT22;44860;53.020;6.738;2023-07-29T14:30:39;23.90;91.10
59075;DHT22;44860;53.020;6.738;2023-07-29T14:33:06;23.80;92.30
59075;DHT22;44860;53.020;6.738;2023-07-29T14:35:32;23.80;92.60
59075;DHT22;44860;53.020;6.738;2023-07-29T14:37:58;23.80;93.60
59075;DHT22;44860;53.020;6.738;2023-07-29T14:40:23;23.80;94.60
59075;DHT22;44860;53.020;6.738;2023-07-29T14:42:49;23.80;92.90
59075;DHT22;44860;53.020;6.738;2023-07-29T14:45:15;23.60;92.40
59075;DHT22;44860;53.020;6.738;2023-07-29T14:47:40;23.60;93.00
59075;DHT22;44860;53.020;6.738;2023-07-29T14:50:06;23.60;92.80
59075;DHT22;44860;53.020;6.738;2023-07-29T14:52:32;23.50;93.50
59075;DHT22;44860;53.020;6.738;2023-07-29T14:54:57;23.40;93.20
59075;DHT22;44860;53.020;6.738;2023-07-29T14:57:23;23.30;92.90
59075;DHT22;44860;53.020;6.738;2023-07-29T14:59:49;23.30;93.60
59075;DHT22;44860;53.020;6.738;2023-07-29T15:02:15;23.20;94.40
59075;DHT22;44860;53.020;6.738;2023-07-29T15:04:40;23.20;94.40
59075;DHT22;44860;53.020;6.738;2023-07-29T15:07:06;23.20;95.50
59075;DHT22;44860;53.020;6.738;2023-07-29T15:09:31;23.20;95.80
59075;DHT22;44860;53.020;6.738;2023-07-29T15:11:57;23.10;97.10
59075;DHT22;44860;53.020;6.738;2023-07-29T15:14:23;23.20;98.30
59075;DHT22;44860;53.020;6.738;2023-07-29T15:16:48;23.10;98.30
59075;DHT22;44860;53.020;6.738;2023-07-29T15:19:14;23.10;97.40
59075;DHT22;44860;53.020;6.738;2023-07-29T15:21:40;23.10;97.30
59075;DHT22;44860;53.020;6.738;2023-07-29T15:24:06;23.00;97.50
59075;DHT22;44860;53.020;6.738;2023-07-29T15:26:31;22.90;97.10
59075;DHT22;44860;53.020;6.738;2023-07-29T15:31:25;22.90;97.80
59075;DHT22;44860;53.020;6.738;2023-07-29T15:33:50;22.90;99.00
59075;DHT22;44860;53.020;6.738;2023-07-29T15:36:17;23.00;99.90
59075;DHT22;44860;53.020;6.738;2023-07-29T15:38:43;23.00;99.80
59075;DHT22;44860;53.020;6.738;2023-07-29T15:41:08;23.10;98.80
59075;DHT22;44860;53.020;6.738;2023-07-29T15:43:34;23.10;98.50